sensor_id;sensor_type;location;lat;lon;timestamp;P1;durP1;ratioP1;P2;durP2;ratioP2
67090;SDS011;54007;55.818;49.058;2024-01-15T07:50:53;14.70;;;5.47;;
67090;SDS011;54007;55.818;49.058;2024-01-15T07:53:18;21.55;;;5.45;;
67090;SDS011;54007;55.818;49.058;2024-01-15T07:55:44;17.35;;;5.50;;
67090;SDS011;54007;55.818;49.058;2024-01-15T07:58:10;16.73;;;3.93;;
67090;SDS011;54007;55.818;49.058;2024-01-15T08:00:36;13.25;;;4.33;;
67090;SDS011;54007;55.818;49.058;2024-01-15T08:03:02;17.10;;;4.43;;
67090;SDS011;54007;55.818;49.058;2024-01-15T08:05:28;12.45;;;4.17;;
67090;SDS011;54007;55.818;49.058;2024-01-15T08:07:53;11.35;;;3.75;;
67090;SDS011;54007;55.818;49.058;2024-01-15T08:10:19;11.83;;;4.60;;
67090;SDS011;54007;55.818;49.058;2024-01-15T08:12:45;14.23;;;4.62;;
67090;SDS011;54007;55.818;49.058;2024-01-15T08:15:11;14.27;;;4.63;;
67090;SDS011;54007;55.818;49.058;2024-01-15T08:17:37;16.15;;;3.95;;
67090;SDS011;54007;55.818;49.058;2024-01-15T08:20:07;16.23;;;5.60;;
67090;SDS011;54007;55.818;49.058;2024-01-15T08:22:32;12.20;;;4.70;;
67090;SDS011;54007;55.818;49.058;2024-01-15T08:24:58;12.68;;;4.12;;
67090;SDS011;54007;55.818;49.058;2024-01-15T08:27:24;15.38;;;4.90;;
67090;SDS011;54007;55.818;49.058;2024-01-15T08:29:50;19.40;;;4.97;;
67090;SDS011;54007;55.818;49.058;2024-01-15T08:32:16;16.37;;;4.75;;
67090;SDS011;54007;55.818;49.058;2024-01-15T08:34:42;15.67;;;4.57;;
67090;SDS011;54007;55.818;49.058;2024-01-15T08:37:07;13.15;;;4.55;;
67090;SDS011;54007;55.818;49.058;2024-01-15T08:39:33;15.70;;;5.35;;
67090;SDS011;54007;55.818;49.058;2024-01-15T08:41:59;13.73;;;5.00;;
67090;SDS011;54007;55.818;49.058;2024-01-15T08:44:25;11.97;;;4.00;;
67090;SDS011;54007;55.818;49.058;2024-01-15T08:46:51;16.83;;;5.27;;
67090;SDS011;54007;55.818;49.058;2024-01-15T08:49:17;11.97;;;4.60;;
67090;SDS011;54007;55.818;49.058;2024-01-15T08:51:42;10.10;;;3.22;;
67090;SDS011;54007;55.818;49.058;2024-01-15T08:54:08;9.80;;;3.13;;
67090;SDS011;54007;55.818;49.058;2024-01-15T08:56:34;13.80;;;3.67;;
67090;SDS011;54007;55.818;49.058;2024-01-15T08:59:00;12.17;;;4.07;;
67090;SDS011;54007;55.818;49.058;2024-01-15T09:01:26;10.38;;;3.60;;
67090;SDS011;54007;55.818;49.058;2024-01-15T09:03:52;9.53;;;3.77;;
67090;SDS011;54007;55.818;49.058;2024-01-15T09:06:18;13.97;;;4.20;;
67090;SDS011;54007;55.818;49.058;2024-01-15T09:08:44;16.65;;;4.03;;
67090;SDS011;54007;55.818;49.058;2024-01-15T10:45:29;8.53;;;2.27;;
67090;SDS011;54007;55.818;49.058;2024-01-15T10:47:55;12.30;;;2.65;;
67090;SDS011;54007;55.818;49.058;2024-01-15T10:50:22;8.25;;;2.92;;
67090;SDS011;54007;55.818;49.058;2024-01-15T10:52:48;11.27;;;3.07;;
67090;SDS011;54007;55.818;49.058;2024-01-15T10:55:14;17.42;;;3.10;;
67090;SDS011;54007;55.818;49.058;2024-01-15T10:57:40;7.80;;;2.42;;
67090;SDS011;54007;55.818;49.058;2024-01-15T11:00:07;7.60;;;2.70;;
67090;SDS011;54007;55.818;49.058;2024-01-15T11:02:35;6.08;;;2.37;;
67090;SDS011;54007;55.818;49.058;2024-01-15T11:05:00;8.68;;;2.50;;
67090;SDS011;54007;55.818;49.058;2024-01-15T11:07:26;7.77;;;2.57;;
67090;SDS011;54007;55.818;49.058;2024-01-15T11:09:52;6.03;;;2.20;;
67090;SDS011;54007;55.818;49.058;2024-01-15T11:12:18;7.55;;;2.47;;
67090;SDS011;54007;55.818;49.058;2024-01-15T11:14:47;11.45;;;2.75;;
67090;SDS011;54007;55.818;49.058;2024-01-15T11:17:12;7.25;;;2.17;;
67090;SDS011;54007;55.818;49.058;2024-01-15T11:19:38;8.77;;;2.57;;
67090;SDS011;54007;55.818;49.058;2024-01-15T11:22:04;5.60;;;2.00;;
67090;SDS011;54007;55.818;49.058;2024-01-15T11:24:35;8.55;;;1.92;;
67090;SDS011;54007;55.818;49.058;2024-01-15T11:26:58;8.07;;;3.10;;
67090;SDS011;54007;55.818;49.058;2024-01-15T11:31:57;8.43;;;2.40;;
67090;SDS011;54007;55.818;49.058;2024-01-15T11:34:49;8.90;;;2.50;;
67090;SDS011;54007;55.818;49.058;2024-01-15T11:41:57;13.63;;;3.30;;
67090;SDS011;54007;55.818;49.058;2024-01-15T11:44:27;7.67;;;2.30;;
67090;SDS011;54007;55.818;49.058;2024-01-15T11:47:00;14.05;;;2.98;;
67090;SDS011;54007;55.818;49.058;2024-01-15T11:52:12;7.15;;;2.25;;
67090;SDS011;54007;55.818;49.058;2024-01-15T11:54:38;7.85;;;2.50;;
67090;SDS011;54007;55.818;49.058;2024-01-15T11:57:05;8.37;;;2.57;;
67090;SDS011;54007;55.818;49.058;2024-01-15T11:59:30;6.40;;;2.72;;
67090;SDS011;54007;55.818;49.058;2024-01-15T12:01:56;7.90;;;2.12;;
67090;SDS011;54007;55.818;49.058;2024-01-15T12:04:22;11.17;;;2.70;;
67090;SDS011;54007;55.818;49.058;2024-01-15T12:06:47;6.85;;;2.22;;
67090;SDS011;54007;55.818;49.058;2024-01-15T12:09:13;6.77;;;2.17;;
67090;SDS011;54007;55.818;49.058;2024-01-15T12:11:39;12.25;;;2.50;;
67090;SDS011;54007;55.818;49.058;2024-01-15T12:14:05;10.40;;;2.92;;
67090;SDS011;54007;55.818;49.058;2024-01-15T12:16:31;6.87;;;2.33;;
67090;SDS011;54007;55.818;49.058;2024-01-15T12:18:57;12.58;;;2.85;;
67090;SDS011;54007;55.818;49.058;2024-01-15T12:21:22;8.33;;;2.40;;
67090;SDS011;54007;55.818;49.058;2024-01-15T12:23:48;6.60;;;2.02;;
67090;SDS011;54007;55.818;49.058;2024-01-15T12:26:14;8.08;;;2.08;;
67090;SDS011;54007;55.818;49.058;2024-01-15T12:28:40;7.73;;;2.10;;
67090;SDS011;54007;55.818;49.058;2024-01-15T12:31:06;7.62;;;2.42;;
67090;SDS011;54007;55.818;49.058;2024-01-15T12:33:33;7.87;;;2.37;;
67090;SDS011;54007;55.818;49.058;2024-01-15T12:35:58;7.42;;;2.42;;
67090;SDS011;54007;55.818;49.058;2024-01-15T12:38:24;7.28;;;2.22;;
67090;SDS011;54007;55.818;49.058;2024-01-15T12:40:49;7.63;;;2.17;;
67090;SDS011;54007;55.818;49.058;2024-01-15T12:43:15;7.75;;;2.30;;
67090;SDS011;54007;55.818;49.058;2024-01-15T12:45:41;7.17;;;2.52;;
67090;SDS011;54007;55.818;49.058;2024-01-15T12:48:07;7.23;;;2.30;;
67090;SDS011;54007;55.818;49.058;2024-01-15T12:50:33;7.85;;;2.22;;
67090;SDS011;54007;55.818;49.058;2024-01-15T12:52:59;8.70;;;2.37;;
67090;SDS011;54007;55.818;49.058;2024-01-15T12:55:27;9.55;;;2.50;;
67090;SDS011;54007;55.818;49.058;2024-01-15T12:57:53;10.88;;;2.60;;
67090;SDS011;54007;55.818;49.058;2024-01-15T13:00:19;6.40;;;1.87;;
67090;SDS011;54007;55.818;49.058;2024-01-15T13:02:45;9.10;;;2.33;;
67090;SDS011;54007;55.818;49.058;2024-01-15T13:05:11;8.63;;;2.60;;
67090;SDS011;54007;55.818;49.058;2024-01-15T13:07:37;11.33;;;2.80;;
67090;SDS011;54007;55.818;49.058;2024-01-15T13:10:03;12.43;;;3.47;;
67090;SDS011;54007;55.818;49.058;2024-01-15T13:12:28;10.97;;;3.23;;
67090;SDS011;54007;55.818;49.058;2024-01-15T13:14:54;11.88;;;3.52;;
67090;SDS011;54007;55.818;49.058;2024-01-15T13:17:20;14.90;;;4.53;;
67090;SDS011;54007;55.818;49.058;2024-01-15T13:19:52;10.93;;;3.30;;
67090;SDS011;54007;55.818;49.058;2024-01-15T13:22:18;8.63;;;2.95;;
67090;SDS011;54007;55.818;49.058;2024-01-15T13:24:44;7.67;;;2.83;;
67090;SDS011;54007;55.818;49.058;2024-01-15T13:27:10;8.43;;;2.60;;
67090;SDS011;54007;55.818;49.058;2024-01-15T13:29:36;8.30;;;2.60;;
67090;SDS011;54007;55.818;49.058;2024-01-15T13:32:02;12.03;;;2.87;;
67090;SDS011;54007;55.818;49.058;2024-01-15T13:34:28;8.98;;;2.60;;
67090;SDS011;54007;55.818;49.058;2024-01-15T13:36:53;10.70;;;2.80;;
67090;SDS011;54007;55.818;49.058;2024-01-15T13:39:19;10.60;;;3.17;;
67090;SDS011;54007;55.818;49.058;2024-01-15T13:41:46;9.28;;;2.60;;
67090;SDS011;54007;55.818;49.058;2024-01-15T13:44:11;7.70;;;2.50;;
67090;SDS011;54007;55.818;49.058;2024-01-15T13:46:37;8.53;;;2.60;;
67090;SDS011;54007;55.818;49.058;2024-01-15T13:49:02;8.28;;;2.25;;
67090;SDS011;54007;55.818;49.058;2024-01-15T13:51:28;6.50;;;2.10;;
67090;SDS011;54007;55.818;49.058;2024-01-15T13:53:54;5.40;;;2.30;;
67090;SDS011;54007;55.818;49.058;2024-01-15T13:56:20;8.17;;;2.60;;
67090;SDS011;54007;55.818;49.058;2024-01-15T13:58:46;10.40;;;2.60;;
67090;SDS011;54007;55.818;49.058;2024-01-15T14:01:12;8.25;;;2.47;;
67090;SDS011;54007;55.818;49.058;2024-01-15T14:03:37;6.70;;;2.47;;
67090;SDS011;54007;55.818;49.058;2024-01-15T14:06:03;10.18;;;2.92;;
67090;SDS011;54007;55.818;49.058;2024-01-15T14:08:29;9.67;;;2.40;;
67090;SDS011;54007;55.818;49.058;2024-01-15T14:10:55;10.60;;;2.50;;
67090;SDS011;54007;55.818;49.058;2024-01-15T14:13:21;10.38;;;3.30;;
67090;SDS011;54007;55.818;49.058;2024-01-15T14:15:47;10.73;;;2.70;;
67090;SDS011;54007;55.818;49.058;2024-01-15T14:18:13;10.70;;;2.77;;
67090;SDS011;54007;55.818;49.058;2024-01-15T14:20:38;8.37;;;2.60;;
67090;SDS011;54007;55.818;49.058;2024-01-15T14:23:04;10.23;;;2.77;;
67090;SDS011;54007;55.818;49.058;2024-01-15T14:25:30;10.32;;;2.80;;
67090;SDS011;54007;55.818;49.058;2024-01-15T14:27:56;10.87;;;3.53;;
67090;SDS011;54007;55.818;49.058;2024-01-15T14:30:22;13.38;;;2.65;;
67090;SDS011;54007;55.818;49.058;2024-01-15T14:32:48;13.23;;;3.93;;
67090;SDS011;54007;55.818;49.058;2024-01-15T14:35:13;13.20;;;3.35;;
67090;SDS011;54007;55.818;49.058;2024-01-15T14:37:43;15.28;;;3.62;;
67090;SDS011;54007;55.818;49.058;2024-01-15T14:40:09;12.83;;;3.90;;
67090;SDS011;54007;55.818;49.058;2024-01-15T14:42:35;10.28;;;3.25;;
67090;SDS011;54007;55.818;49.058;2024-01-15T14:45:01;12.33;;;3.55;;
67090;SDS011;54007;55.818;49.058;2024-01-15T14:47:27;12.50;;;3.50;;
67090;SDS011;54007;55.818;49.058;2024-01-15T14:49:53;14.15;;;3.10;;
67090;SDS011;54007;55.818;49.058;2024-01-15T14:52:19;13.28;;;3.10;;
67090;SDS011;54007;55.818;49.058;2024-01-15T14:54:44;13.47;;;3.33;;
67090;SDS011;54007;55.818;49.058;2024-01-15T14:57:10;13.72;;;3.33;;
67090;SDS011;54007;55.818;49.058;2024-01-15T14:59:36;10.67;;;3.33;;
67090;SDS011;54007;55.818;49.058;2024-01-15T15:02:02;11.25;;;3.12;;
67090;SDS011;54007;55.818;49.058;2024-01-15T15:04:28;10.55;;;2.75;;
67090;SDS011;54007;55.818;49.058;2024-01-15T15:06:57;12.90;;;2.60;;
67090;SDS011;54007;55.818;49.058;2024-01-15T15:09:20;8.63;;;3.00;;
67090;SDS011;54007;55.818;49.058;2024-01-15T15:11:46;11.20;;;3.20;;
67090;SDS011;54007;55.818;49.058;2024-01-15T15:14:11;14.30;;;3.80;;
67090;SDS011;54007;55.818;49.058;2024-01-15T15:16:37;10.60;;;3.12;;
67090;SDS011;54007;55.818;49.058;2024-01-15T15:19:03;7.17;;;2.47;;
67090;SDS011;54007;55.818;49.058;2024-01-15T15:21:29;11.63;;;2.80;;
67090;SDS011;54007;55.818;49.058;2024-01-15T15:23:55;9.30;;;2.40;;
67090;SDS011;54007;55.818;49.058;2024-01-15T15:26:24;8.87;;;2.60;;
67090;SDS011;54007;55.818;49.058;2024-01-15T15:28:50;8.83;;;2.60;;
67090;SDS011;54007;55.818;49.058;2024-01-15T15:31:16;9.73;;;2.43;;
67090;SDS011;54007;55.818;49.058;2024-01-15T15:33:42;6.95;;;2.12;;
67090;SDS011;54007;55.818;49.058;2024-01-15T15:36:08;12.30;;;2.60;;
67090;SDS011;54007;55.818;49.058;2024-01-15T15:38:34;8.30;;;2.60;;
67090;SDS011;54007;55.818;49.058;2024-01-15T15:41:00;8.78;;;2.33;;
67090;SDS011;54007;55.818;49.058;2024-01-15T15:43:28;9.58;;;3.10;;
67090;SDS011;54007;55.818;49.058;2024-01-15T15:45:54;10.87;;;3.20;;
67090;SDS011;54007;55.818;49.058;2024-01-15T15:48:20;6.33;;;2.20;;
67090;SDS011;54007;55.818;49.058;2024-01-15T15:50:46;9.17;;;2.87;;
67090;SDS011;54007;55.818;49.058;2024-01-15T15:53:11;8.70;;;2.55;;
67090;SDS011;54007;55.818;49.058;2024-01-15T15:55:37;9.18;;;2.37;;
67090;SDS011;54007;55.818;49.058;2024-01-15T15:58:03;11.40;;;3.20;;
67090;SDS011;54007;55.818;49.058;2024-01-15T16:00:32;10.48;;;2.72;;
67090;SDS011;54007;55.818;49.058;2024-01-15T16:02:58;10.82;;;2.85;;
67090;SDS011;54007;55.818;49.058;2024-01-15T16:05:24;13.00;;;3.17;;
67090;SDS011;54007;55.818;49.058;2024-01-15T16:07:50;11.70;;;3.52;;
67090;SDS011;54007;55.818;49.058;2024-01-15T16:10:16;8.57;;;3.10;;
67090;SDS011;54007;55.818;49.058;2024-01-15T16:12:41;11.10;;;2.67;;
67090;SDS011;54007;55.818;49.058;2024-01-15T16:15:16;9.68;;;2.50;;
67090;SDS011;54007;55.818;49.058;2024-01-15T16:17:33;13.43;;;3.03;;
67090;SDS011;54007;55.818;49.058;2024-01-15T16:19:59;9.10;;;2.95;;
67090;SDS011;54007;55.818;49.058;2024-01-15T16:22:25;7.77;;;2.77;;
67090;SDS011;54007;55.818;49.058;2024-01-15T16:24:51;9.23;;;3.00;;
67090;SDS011;54007;55.818;49.058;2024-01-15T16:27:17;7.30;;;2.25;;
67090;SDS011;54007;55.818;49.058;2024-01-15T16:29:42;10.60;;;2.30;;
67090;SDS011;54007;55.818;49.058;2024-01-15T16:32:08;10.98;;;2.72;;
67090;SDS011;54007;55.818;49.058;2024-01-15T16:34:34;6.47;;;2.40;;
67090;SDS011;54007;55.818;49.058;2024-01-15T16:37:00;10.03;;;2.27;;
67090;SDS011;54007;55.818;49.058;2024-01-15T16:39:26;7.58;;;2.30;;
67090;SDS011;54007;55.818;49.058;2024-01-15T16:41:54;7.87;;;2.27;;
67090;SDS011;54007;55.818;49.058;2024-01-15T16:44:20;6.40;;;2.65;;
67090;SDS011;54007;55.818;49.058;2024-01-15T16:46:46;7.33;;;1.90;;
67090;SDS011;54007;55.818;49.058;2024-01-15T16:49:12;9.53;;;2.03;;
67090;SDS011;54007;55.818;49.058;2024-01-15T16:51:38;6.83;;;2.20;;
67090;SDS011;54007;55.818;49.058;2024-01-15T16:54:04;6.83;;;2.43;;
67090;SDS011;54007;55.818;49.058;2024-01-15T16:56:30;8.38;;;3.17;;
67090;SDS011;54007;55.818;49.058;2024-01-15T16:58:56;10.53;;;2.98;;
67090;SDS011;54007;55.818;49.058;2024-01-15T17:01:21;13.50;;;3.30;;
67090;SDS011;54007;55.818;49.058;2024-01-15T17:03:47;8.08;;;2.25;;
67090;SDS011;54007;55.818;49.058;2024-01-15T17:06:13;8.08;;;2.30;;
67090;SDS011;54007;55.818;49.058;2024-01-15T17:08:39;8.33;;;2.67;;
67090;SDS011;54007;55.818;49.058;2024-01-15T17:11:05;9.50;;;2.42;;
67090;SDS011;54007;55.818;49.058;2024-01-15T17:13:31;9.50;;;2.90;;
67090;SDS011;54007;55.818;49.058;2024-01-15T17:15:57;8.90;;;2.75;;
67090;SDS011;54007;55.818;49.058;2024-01-15T17:18:25;10.30;;;3.15;;
67090;SDS011;54007;55.818;49.058;2024-01-15T17:20:51;9.73;;;2.90;;
67090;SDS011;54007;55.818;49.058;2024-01-15T17:23:17;10.98;;;2.60;;
67090;SDS011;54007;55.818;49.058;2024-01-15T17:25:43;10.33;;;2.83;;
67090;SDS011;54007;55.818;49.058;2024-01-15T17:28:08;12.55;;;3.30;;
67090;SDS011;54007;55.818;49.058;2024-01-15T17:30:34;9.28;;;3.40;;
67090;SDS011;54007;55.818;49.058;2024-01-15T17:33:00;11.97;;;3.17;;
67090;SDS011;54007;55.818;49.058;2024-01-15T17:35:26;8.28;;;2.30;;
67090;SDS011;54007;55.818;49.058;2024-01-15T17:37:52;9.60;;;2.77;;
67090;SDS011;54007;55.818;49.058;2024-01-15T17:40:18;6.85;;;2.35;;
67090;SDS011;54007;55.818;49.058;2024-01-15T17:42:44;8.35;;;3.02;;
67090;SDS011;54007;55.818;49.058;2024-01-15T17:45:10;8.27;;;3.03;;
67090;SDS011;54007;55.818;49.058;2024-01-15T17:47:36;13.15;;;2.70;;
67090;SDS011;54007;55.818;49.058;2024-01-15T17:50:02;9.30;;;2.67;;
67090;SDS011;54007;55.818;49.058;2024-01-15T17:52:28;8.60;;;2.60;;
67090;SDS011;54007;55.818;49.058;2024-01-15T17:54:54;14.03;;;3.42;;
67090;SDS011;54007;55.818;49.058;2024-01-15T17:57:20;9.57;;;2.60;;
67090;SDS011;54007;55.818;49.058;2024-01-15T17:59:46;10.00;;;3.00;;
67090;SDS011;54007;55.818;49.058;2024-01-15T18:02:11;8.10;;;2.45;;
67090;SDS011;54007;55.818;49.058;2024-01-15T18:04:37;10.10;;;2.40;;
67090;SDS011;54007;55.818;49.058;2024-01-15T18:07:03;8.88;;;2.50;;
67090;SDS011;54007;55.818;49.058;2024-01-15T18:09:29;8.45;;;2.52;;
67090;SDS011;54007;55.818;49.058;2024-01-15T18:11:55;9.73;;;2.37;;
67090;SDS011;54007;55.818;49.058;2024-01-15T18:14:21;8.75;;;2.47;;
67090;SDS011;54007;55.818;49.058;2024-01-15T18:16:47;5.80;;;2.20;;
67090;SDS011;54007;55.818;49.058;2024-01-15T18:19:13;7.53;;;1.92;;
67090;SDS011;54007;55.818;49.058;2024-01-15T18:21:38;7.80;;;2.20;;
67090;SDS011;54007;55.818;49.058;2024-01-15T18:24:04;10.63;;;2.90;;
67090;SDS011;54007;55.818;49.058;2024-01-15T18:26:30;11.70;;;2.40;;
67090;SDS011;54007;55.818;49.058;2024-01-15T18:28:56;13.60;;;2.70;;
67090;SDS011;54007;55.818;49.058;2024-01-15T18:31:22;9.08;;;2.70;;
67090;SDS011;54007;55.818;49.058;2024-01-15T18:33:48;7.33;;;2.33;;
67090;SDS011;54007;55.818;49.058;2024-01-15T18:36:14;6.47;;;2.33;;
67090;SDS011;54007;55.818;49.058;2024-01-15T18:38:40;10.98;;;3.42;;
67090;SDS011;54007;55.818;49.058;2024-01-15T18:41:06;9.98;;;3.15;;
67090;SDS011;54007;55.818;49.058;2024-01-15T18:43:31;8.60;;;2.43;;
67090;SDS011;54007;55.818;49.058;2024-01-15T18:45:57;8.90;;;2.42;;
67090;SDS011;54007;55.818;49.058;2024-01-15T18:48:23;8.80;;;2.60;;
67090;SDS011;54007;55.818;49.058;2024-01-15T18:50:49;8.90;;;2.40;;
67090;SDS011;54007;55.818;49.058;2024-01-15T18:53:15;8.10;;;2.75;;
67090;SDS011;54007;55.818;49.058;2024-01-15T18:55:40;7.27;;;2.30;;
67090;SDS011;54007;55.818;49.058;2024-01-15T18:58:06;12.58;;;2.72;;
67090;SDS011;54007;55.818;49.058;2024-01-15T19:00:32;9.40;;;2.80;;
67090;SDS011;54007;55.818;49.058;2024-01-15T19:02:58;11.68;;;2.80;;
67090;SDS011;54007;55.818;49.058;2024-01-15T19:05:24;7.15;;;2.27;;
67090;SDS011;54007;55.818;49.058;2024-01-15T19:07:50;7.97;;;1.97;;
67090;SDS011;54007;55.818;49.058;2024-01-15T19:10:15;7.90;;;2.02;;
67090;SDS011;54007;55.818;49.058;2024-01-15T19:12:41;8.70;;;2.83;;
67090;SDS011;54007;55.818;49.058;2024-01-15T19:15:07;9.85;;;2.30;;
67090;SDS011;54007;55.818;49.058;2024-01-15T19:17:33;9.48;;;2.55;;
67090;SDS011;54007;55.818;49.058;2024-01-15T19:19:59;10.67;;;2.07;;
